Hlavní strana
METAR-TAF:

METAR-TAF

Letiště :

In Aménas, Alžírsko

zeměpisná šířka: 28-03N, zeměpisná délka: 009-38E, výška: 562 m

Aktuální stav počasí

Zpráva byla vytvořena před 26 minutami, v 18:00 UTC
Západoseverozápadní vítr 5 kt
Teplota 16°C
Vlhkost vzduchu 42%
Tlak 1021 hPa
Viditelnost: 7000 m

METAR: DAUZ 141800Z 29005KT 7000 NSC 16/03 Q1021

Čas: 19:26 (18:26 UTC)

Předpověď počasí

Zpráva byla vytvořena před 1 hodinou a 26 minutami, v 17:00 UTC
Předpověď platná od 14 v 18 UTC do 15 v 18 UTC
Severozápadní vítr 8 kt
Viditelnost: 8000 m
Pravděpodobnost 30%
od 14 v 18 UTC do 14 v 22 UTC
Viditelnost: 4000 m
zákal
Změna
od 15 v 08 UTC do 15 v 10 UTC
Východojihovýchodní vítr 12 kt

TAF: DAUZ 141700Z 1418/1518 32008KT 8000 NSC PROB30 1418/1422 4000 HZ BECMG 1508/1510 12012KT

Stav a předpovědi počasí z více než 4 000 letišť (zprávy METAR a TAF).

Červené a žluté tečky na mapě představují dostupné meteorologické stanice.

Když kurzor umístíte na tečku, zobrazí se název stanice.

Pak kliknutím zobrazíte stav a předpověď počasí.

Chcete-li změnit mapu, kliknutím na zelené tlačítko se znaménkem +mapu přiblížíte, kliknutím na zelené tlačítko se znaménkem – mapu oddálíte a kliknutím na zelené šipky přejdete na sousední mapy.


METAR-TAF: